sensor_id;sensor_type;location;lat;lon;timestamp;P1;durP1;ratioP1;P2;durP2;ratioP2
75993;SDS011;64680;53.800;9.988;2022-12-29T00:01:39;5.90;;;4.50;;
75993;SDS011;64680;53.800;9.988;2022-12-29T00:04:05;6.22;;;4.28;;
75993;SDS011;64680;53.800;9.988;2022-12-29T00:06:31;5.82;;;4.40;;
75993;SDS011;64680;53.800;9.988;2022-12-29T00:08:57;9.07;;;5.47;;
75993;SDS011;64680;53.800;9.988;2022-12-29T00:11:24;7.65;;;5.22;;
75993;SDS011;64680;53.800;9.988;2022-12-29T00:13:51;7.70;;;5.88;;
75993;SDS011;64680;53.800;9.988;2022-12-29T00:16:36;8.15;;;4.97;;
75993;SDS011;64680;53.800;9.988;2022-12-29T00:19:04;8.15;;;5.80;;
75993;SDS011;64680;53.800;9.988;2022-12-29T00:21:30;11.32;;;5.82;;
75993;SDS011;64680;53.800;9.988;2022-12-29T00:24:15;9.30;;;5.82;;
75993;SDS011;64680;53.800;9.988;2022-12-29T00:26:53;7.28;;;5.45;;
75993;SDS011;64680;53.800;9.988;2022-12-29T00:29:38;8.02;;;5.10;;
75993;SDS011;64680;53.800;9.988;2022-12-29T00:32:22;6.43;;;5.18;;
75993;SDS011;64680;53.800;9.988;2022-12-29T00:35:08;6.35;;;5.00;;
75993;SDS011;64680;53.800;9.988;2022-12-29T00:37:38;8.57;;;5.40;;
75993;SDS011;64680;53.800;9.988;2022-12-29T00:40:27;6.53;;;4.95;;
75993;SDS011;64680;53.800;9.988;2022-12-29T00:43:11;7.38;;;5.03;;
75993;SDS011;64680;53.800;9.988;2022-12-29T00:45:55;6.47;;;5.05;;
75993;SDS011;64680;53.800;9.988;2022-12-29T00:48:20;8.38;;;5.78;;
75993;SDS011;64680;53.800;9.988;2022-12-29T00:51:05;6.80;;;5.35;;
75993;SDS011;64680;53.800;9.988;2022-12-29T00:53:31;7.97;;;5.32;;
75993;SDS011;64680;53.800;9.988;2022-12-29T00:55:57;6.65;;;5.28;;
75993;SDS011;64680;53.800;9.988;2022-12-29T00:58:23;9.98;;;5.68;;
75993;SDS011;64680;53.800;9.988;2022-12-29T01:00:48;6.53;;;5.38;;
75993;SDS011;64680;53.800;9.988;2022-12-29T01:03:14;8.48;;;6.00;;
75993;SDS011;64680;53.800;9.988;2022-12-29T01:05:39;6.03;;;5.35;;
75993;SDS011;64680;53.800;9.988;2022-12-29T01:08:05;9.23;;;6.07;;
75993;SDS011;64680;53.800;9.988;2022-12-29T01:10:30;7.50;;;5.55;;
75993;SDS011;64680;53.800;9.988;2022-12-29T01:12:56;7.10;;;5.25;;
75993;SDS011;64680;53.800;9.988;2022-12-29T01:15:22;7.32;;;6.22;;
75993;SDS011;64680;53.800;9.988;2022-12-29T01:17:47;8.40;;;5.40;;
75993;SDS011;64680;53.800;9.988;2022-12-29T01:20:13;8.55;;;5.97;;
75993;SDS011;64680;53.800;9.988;2022-12-29T01:22:38;6.80;;;5.40;;
75993;SDS011;64680;53.800;9.988;2022-12-29T01:25:04;7.65;;;5.65;;
75993;SDS011;64680;53.800;9.988;2022-12-29T01:27:31;7.82;;;6.22;;
75993;SDS011;64680;53.800;9.988;2022-12-29T01:29:57;7.75;;;5.65;;
75993;SDS011;64680;53.800;9.988;2022-12-29T01:32:22;6.80;;;5.72;;
75993;SDS011;64680;53.800;9.988;2022-12-29T01:34:48;7.40;;;5.40;;
75993;SDS011;64680;53.800;9.988;2022-12-29T01:37:14;5.85;;;4.85;;
75993;SDS011;64680;53.800;9.988;2022-12-29T01:39:39;5.22;;;4.28;;
75993;SDS011;64680;53.800;9.988;2022-12-29T01:42:05;6.55;;;4.93;;
75993;SDS011;64680;53.800;9.988;2022-12-29T01:44:47;7.47;;;5.22;;
75993;SDS011;64680;53.800;9.988;2022-12-29T01:47:26;7.32;;;5.28;;
75993;SDS011;64680;53.800;9.988;2022-12-29T01:50:03;6.72;;;5.03;;
75993;SDS011;64680;53.800;9.988;2022-12-29T01:52:42;6.00;;;4.97;;
75993;SDS011;64680;53.800;9.988;2022-12-29T01:55:11;6.95;;;5.32;;
75993;SDS011;64680;53.800;9.988;2022-12-29T01:57:38;7.55;;;5.65;;
75993;SDS011;64680;53.800;9.988;2022-12-29T02:00:09;7.38;;;5.55;;
75993;SDS011;64680;53.800;9.988;2022-12-29T02:02:38;6.38;;;5.07;;
75993;SDS011;64680;53.800;9.988;2022-12-29T02:08:01;9.02;;;6.07;;
75993;SDS011;64680;53.800;9.988;2022-12-29T02:10:28;7.60;;;5.38;;
75993;SDS011;64680;53.800;9.988;2022-12-29T02:12:56;8.77;;;6.40;;
75993;SDS011;64680;53.800;9.988;2022-12-29T02:15:34;8.02;;;6.03;;
75993;SDS011;64680;53.800;9.988;2022-12-29T02:18:16;8.48;;;6.28;;
75993;SDS011;64680;53.800;9.988;2022-12-29T02:29:01;8.45;;;5.90;;
75993;SDS011;64680;53.800;9.988;2022-12-29T02:32:07;8.30;;;6.22;;
75993;SDS011;64680;53.800;9.988;2022-12-29T02:37:24;7.80;;;5.60;;
75993;SDS011;64680;53.800;9.988;2022-12-29T02:42:50;8.70;;;6.50;;
75993;SDS011;64680;53.800;9.988;2022-12-29T02:50:59;9.10;;;6.97;;
75993;SDS011;64680;53.800;9.988;2022-12-29T02:53:27;7.18;;;5.18;;
75993;SDS011;64680;53.800;9.988;2022-12-29T02:56:14;7.28;;;5.65;;
75993;SDS011;64680;53.800;9.988;2022-12-29T02:58:39;7.95;;;5.90;;
75993;SDS011;64680;53.800;9.988;2022-12-29T03:04:03;7.60;;;5.32;;
75993;SDS011;64680;53.800;9.988;2022-12-29T03:15:11;7.47;;;4.93;;
75993;SDS011;64680;53.800;9.988;2022-12-29T03:18:05;6.70;;;4.97;;
75993;SDS011;64680;53.800;9.988;2022-12-29T03:20:43;5.75;;;4.40;;
75993;SDS011;64680;53.800;9.988;2022-12-29T03:23:15;6.50;;;5.22;;
75993;SDS011;64680;53.800;9.988;2022-12-29T03:25:46;5.97;;;5.05;;
75993;SDS011;64680;53.800;9.988;2022-12-29T03:28:17;8.93;;;5.00;;
75993;SDS011;64680;53.800;9.988;2022-12-29T03:30:47;6.65;;;4.85;;
75993;SDS011;64680;53.800;9.988;2022-12-29T03:33:14;6.20;;;4.20;;
75993;SDS011;64680;53.800;9.988;2022-12-29T03:35:42;7.03;;;5.07;;
75993;SDS011;64680;53.800;9.988;2022-12-29T03:40:40;5.57;;;4.68;;
75993;SDS011;64680;53.800;9.988;2022-12-29T03:43:12;5.93;;;4.35;;
75993;SDS011;64680;53.800;9.988;2022-12-29T03:45:38;6.18;;;4.78;;
75993;SDS011;64680;53.800;9.988;2022-12-29T03:48:04;5.18;;;4.28;;
75993;SDS011;64680;53.800;9.988;2022-12-29T03:50:30;5.72;;;4.47;;
75993;SDS011;64680;53.800;9.988;2022-12-29T03:52:55;5.45;;;4.55;;
75993;SDS011;64680;53.800;9.988;2022-12-29T03:55:21;4.70;;;3.65;;
75993;SDS011;64680;53.800;9.988;2022-12-29T03:57:46;7.18;;;4.22;;
75993;SDS011;64680;53.800;9.988;2022-12-29T04:00:12;6.35;;;4.35;;
75993;SDS011;64680;53.800;9.988;2022-12-29T04:02:38;6.97;;;3.88;;
75993;SDS011;64680;53.800;9.988;2022-12-29T04:05:04;4.57;;;3.50;;
75993;SDS011;64680;53.800;9.988;2022-12-29T04:07:30;4.82;;;3.90;;
75993;SDS011;64680;53.800;9.988;2022-12-29T04:09:55;4.50;;;3.50;;
75993;SDS011;64680;53.800;9.988;2022-12-29T04:12:21;4.97;;;3.67;;
75993;SDS011;64680;53.800;9.988;2022-12-29T04:14:46;3.83;;;3.30;;
75993;SDS011;64680;53.800;9.988;2022-12-29T04:17:12;6.38;;;3.72;;
75993;SDS011;64680;53.800;9.988;2022-12-29T04:19:37;4.80;;;4.25;;
75993;SDS011;64680;53.800;9.988;2022-12-29T04:22:03;4.25;;;3.15;;
75993;SDS011;64680;53.800;9.988;2022-12-29T04:24:29;3.90;;;3.50;;
75993;SDS011;64680;53.800;9.988;2022-12-29T04:26:54;4.97;;;3.88;;
75993;SDS011;64680;53.800;9.988;2022-12-29T04:29:20;4.05;;;3.22;;
75993;SDS011;64680;53.800;9.988;2022-12-29T04:31:46;4.88;;;3.30;;
75993;SDS011;64680;53.800;9.988;2022-12-29T04:34:11;3.75;;;3.22;;
75993;SDS011;64680;53.800;9.988;2022-12-29T04:36:37;3.38;;;3.08;;
75993;SDS011;64680;53.800;9.988;2022-12-29T04:39:04;3.78;;;2.90;;
75993;SDS011;64680;53.800;9.988;2022-12-29T04:41:30;5.53;;;3.53;;
75993;SDS011;64680;53.800;9.988;2022-12-29T04:43:56;3.25;;;2.70;;
75993;SDS011;64680;53.800;9.988;2022-12-29T04:46:21;3.10;;;2.40;;
75993;SDS011;64680;53.800;9.988;2022-12-29T04:48:47;3.28;;;2.97;;
75993;SDS011;64680;53.800;9.988;2022-12-29T04:51:12;3.30;;;3.00;;
75993;SDS011;64680;53.800;9.988;2022-12-29T04:53:38;3.47;;;2.60;;
75993;SDS011;64680;53.800;9.988;2022-12-29T04:56:04;2.45;;;2.17;;
75993;SDS011;64680;53.800;9.988;2022-12-29T04:58:30;2.40;;;2.10;;
75993;SDS011;64680;53.800;9.988;2022-12-29T05:00:55;4.80;;;1.90;;
75993;SDS011;64680;53.800;9.988;2022-12-29T05:03:21;3.83;;;2.25;;
75993;SDS011;64680;53.800;9.988;2022-12-29T05:05:46;3.03;;;2.28;;
75993;SDS011;64680;53.800;9.988;2022-12-29T05:08:12;3.53;;;2.38;;
75993;SDS011;64680;53.800;9.988;2022-12-29T05:10:37;3.67;;;3.05;;
75993;SDS011;64680;53.800;9.988;2022-12-29T05:13:03;3.47;;;2.63;;
75993;SDS011;64680;53.800;9.988;2022-12-29T05:15:28;3.33;;;2.80;;
75993;SDS011;64680;53.800;9.988;2022-12-29T05:17:54;2.90;;;2.30;;
75993;SDS011;64680;53.800;9.988;2022-12-29T05:20:20;4.40;;;2.33;;
75993;SDS011;64680;53.800;9.988;2022-12-29T05:22:45;2.95;;;2.65;;
75993;SDS011;64680;53.800;9.988;2022-12-29T05:25:11;2.72;;;2.22;;
75993;SDS011;64680;53.800;9.988;2022-12-29T05:27:36;4.80;;;2.20;;
75993;SDS011;64680;53.800;9.988;2022-12-29T05:30:02;3.70;;;2.25;;
75993;SDS011;64680;53.800;9.988;2022-12-29T05:32:28;4.70;;;3.05;;
75993;SDS011;64680;53.800;9.988;2022-12-29T05:34:54;3.50;;;2.70;;
75993;SDS011;64680;53.800;9.988;2022-12-29T05:37:19;3.05;;;2.47;;
75993;SDS011;64680;53.800;9.988;2022-12-29T05:39:45;3.40;;;2.63;;
75993;SDS011;64680;53.800;9.988;2022-12-29T05:42:10;3.75;;;2.92;;
75993;SDS011;64680;53.800;9.988;2022-12-29T05:44:36;3.17;;;2.50;;
75993;SDS011;64680;53.800;9.988;2022-12-29T05:47:01;2.88;;;2.58;;
75993;SDS011;64680;53.800;9.988;2022-12-29T05:49:27;3.72;;;2.72;;
75993;SDS011;64680;53.800;9.988;2022-12-29T05:51:53;4.30;;;2.60;;
75993;SDS011;64680;53.800;9.988;2022-12-29T05:54:18;5.13;;;3.13;;
75993;SDS011;64680;53.800;9.988;2022-12-29T05:56:44;3.38;;;2.92;;
75993;SDS011;64680;53.800;9.988;2022-12-29T05:59:09;4.10;;;2.65;;
75993;SDS011;64680;53.800;9.988;2022-12-29T06:01:35;3.97;;;2.90;;
75993;SDS011;64680;53.800;9.988;2022-12-29T06:04:01;4.70;;;3.45;;
75993;SDS011;64680;53.800;9.988;2022-12-29T06:06:26;5.03;;;3.88;;
75993;SDS011;64680;53.800;9.988;2022-12-29T06:08:52;3.83;;;3.25;;
75993;SDS011;64680;53.800;9.988;2022-12-29T06:11:17;4.50;;;3.72;;
75993;SDS011;64680;53.800;9.988;2022-12-29T06:13:43;4.32;;;3.88;;
75993;SDS011;64680;53.800;9.988;2022-12-29T06:16:08;4.47;;;3.45;;
75993;SDS011;64680;53.800;9.988;2022-12-29T06:18:34;4.72;;;3.75;;
75993;SDS011;64680;53.800;9.988;2022-12-29T06:21:00;5.78;;;3.58;;
75993;SDS011;64680;53.800;9.988;2022-12-29T06:23:27;4.30;;;3.33;;
75993;SDS011;64680;53.800;9.988;2022-12-29T06:25:53;3.88;;;3.40;;
75993;SDS011;64680;53.800;9.988;2022-12-29T06:28:18;4.93;;;3.75;;
75993;SDS011;64680;53.800;9.988;2022-12-29T06:30:44;4.20;;;3.28;;
75993;SDS011;64680;53.800;9.988;2022-12-29T06:33:11;3.28;;;2.85;;
75993;SDS011;64680;53.800;9.988;2022-12-29T06:35:37;4.20;;;3.33;;
75993;SDS011;64680;53.800;9.988;2022-12-29T06:38:03;4.15;;;2.53;;
75993;SDS011;64680;53.800;9.988;2022-12-29T06:40:28;4.90;;;2.92;;
75993;SDS011;64680;53.800;9.988;2022-12-29T06:42:54;3.83;;;2.60;;
75993;SDS011;64680;53.800;9.988;2022-12-29T06:45:20;3.30;;;2.33;;
75993;SDS011;64680;53.800;9.988;2022-12-29T06:47:45;3.38;;;2.78;;
75993;SDS011;64680;53.800;9.988;2022-12-29T06:50:11;4.05;;;2.40;;
75993;SDS011;64680;53.800;9.988;2022-12-29T06:52:37;3.88;;;2.90;;
75993;SDS011;64680;53.800;9.988;2022-12-29T06:55:02;4.07;;;2.65;;
75993;SDS011;64680;53.800;9.988;2022-12-29T06:57:28;2.53;;;2.25;;
75993;SDS011;64680;53.800;9.988;2022-12-29T06:59:54;3.10;;;2.30;;
75993;SDS011;64680;53.800;9.988;2022-12-29T07:02:20;4.50;;;2.40;;
75993;SDS011;64680;53.800;9.988;2022-12-29T07:04:46;3.25;;;1.95;;
75993;SDS011;64680;53.800;9.988;2022-12-29T07:07:12;3.25;;;2.60;;
75993;SDS011;64680;53.800;9.988;2022-12-29T07:09:37;2.85;;;2.63;;
75993;SDS011;64680;53.800;9.988;2022-12-29T07:12:03;4.47;;;2.92;;
75993;SDS011;64680;53.800;9.988;2022-12-29T07:14:29;3.20;;;2.22;;
75993;SDS011;64680;53.800;9.988;2022-12-29T07:16:55;2.92;;;2.45;;
75993;SDS011;64680;53.800;9.988;2022-12-29T07:19:20;2.67;;;2.28;;
75993;SDS011;64680;53.800;9.988;2022-12-29T07:21:46;3.78;;;2.72;;
75993;SDS011;64680;53.800;9.988;2022-12-29T07:24:11;2.97;;;2.30;;
75993;SDS011;64680;53.800;9.988;2022-12-29T07:26:37;2.88;;;1.95;;
75993;SDS011;64680;53.800;9.988;2022-12-29T07:29:03;3.83;;;3.13;;
75993;SDS011;64680;53.800;9.988;2022-12-29T07:31:29;3.08;;;1.95;;
75993;SDS011;64680;53.800;9.988;2022-12-29T07:33:55;3.70;;;2.25;;
75993;SDS011;64680;53.800;9.988;2022-12-29T07:36:20;3.83;;;2.47;;
75993;SDS011;64680;53.800;9.988;2022-12-29T07:38:46;4.25;;;2.35;;
75993;SDS011;64680;53.800;9.988;2022-12-29T07:41:11;3.65;;;2.28;;
75993;SDS011;64680;53.800;9.988;2022-12-29T07:43:37;2.67;;;2.45;;
75993;SDS011;64680;53.800;9.988;2022-12-29T07:46:03;2.65;;;2.10;;
75993;SDS011;64680;53.800;9.988;2022-12-29T07:48:28;2.80;;;2.13;;
75993;SDS011;64680;53.800;9.988;2022-12-29T07:50:54;2.42;;;2.22;;
75993;SDS011;64680;53.800;9.988;2022-12-29T07:53:20;2.13;;;1.80;;
75993;SDS011;64680;53.800;9.988;2022-12-29T07:55:45;2.47;;;2.00;;
75993;SDS011;64680;53.800;9.988;2022-12-29T07:58:11;2.58;;;1.35;;
75993;SDS011;64680;53.800;9.988;2022-12-29T08:00:37;4.40;;;2.33;;
75993;SDS011;64680;53.800;9.988;2022-12-29T08:03:03;3.70;;;1.95;;
75993;SDS011;64680;53.800;9.988;2022-12-29T08:05:32;2.72;;;1.83;;
75993;SDS011;64680;53.800;9.988;2022-12-29T08:07:59;2.70;;;1.80;;
75993;SDS011;64680;53.800;9.988;2022-12-29T08:10:25;2.00;;;1.80;;
75993;SDS011;64680;53.800;9.988;2022-12-29T08:12:51;2.20;;;1.67;;
75993;SDS011;64680;53.800;9.988;2022-12-29T08:15:17;2.10;;;1.42;;
75993;SDS011;64680;53.800;9.988;2022-12-29T08:17:43;2.97;;;2.05;;
75993;SDS011;64680;53.800;9.988;2022-12-29T08:20:08;2.97;;;2.10;;
75993;SDS011;64680;53.800;9.988;2022-12-29T08:22:34;3.00;;;1.60;;
75993;SDS011;64680;53.800;9.988;2022-12-29T08:25:00;2.15;;;1.35;;
75993;SDS011;64680;53.800;9.988;2022-12-29T08:27:26;3.00;;;1.20;;
75993;SDS011;64680;53.800;9.988;2022-12-29T08:29:51;1.70;;;1.60;;
75993;SDS011;64680;53.800;9.988;2022-12-29T08:32:17;3.22;;;1.77;;
75993;SDS011;64680;53.800;9.988;2022-12-29T08:34:43;3.13;;;1.30;;
75993;SDS011;64680;53.800;9.988;2022-12-29T08:37:09;2.33;;;1.30;;
75993;SDS011;64680;53.800;9.988;2022-12-29T08:39:34;2.20;;;1.40;;
75993;SDS011;64680;53.800;9.988;2022-12-29T08:42:00;2.53;;;1.42;;
75993;SDS011;64680;53.800;9.988;2022-12-29T08:44:26;3.10;;;1.75;;
75993;SDS011;64680;53.800;9.988;2022-12-29T08:46:51;2.67;;;1.70;;
75993;SDS011;64680;53.800;9.988;2022-12-29T08:49:17;1.67;;;1.38;;
75993;SDS011;64680;53.800;9.988;2022-12-29T08:51:42;2.13;;;1.40;;
75993;SDS011;64680;53.800;9.988;2022-12-29T08:54:08;1.70;;;1.45;;
75993;SDS011;64680;53.800;9.988;2022-12-29T08:56:33;2.75;;;0.95;;
75993;SDS011;64680;53.800;9.988;2022-12-29T08:58:59;3.67;;;1.10;;
75993;SDS011;64680;53.800;9.988;2022-12-29T09:01:25;2.60;;;1.13;;
75993;SDS011;64680;53.800;9.988;2022-12-29T09:03:50;2.15;;;0.90;;
75993;SDS011;64680;53.800;9.988;2022-12-29T09:06:16;5.13;;;1.15;;
75993;SDS011;64680;53.800;9.988;2022-12-29T09:08:43;2.88;;;1.02;;
75993;SDS011;64680;53.800;9.988;2022-12-29T09:11:10;2.10;;;0.80;;
75993;SDS011;64680;53.800;9.988;2022-12-29T09:13:38;1.73;;;1.02;;
75993;SDS011;64680;53.800;9.988;2022-12-29T09:16:04;1.55;;;0.90;;
75993;SDS011;64680;53.800;9.988;2022-12-29T09:18:30;4.50;;;0.95;;
75993;SDS011;64680;53.800;9.988;2022-12-29T09:20:59;3.53;;;1.13;;
75993;SDS011;64680;53.800;9.988;2022-12-29T09:23:27;3.67;;;0.95;;
75993;SDS011;64680;53.800;9.988;2022-12-29T09:25:53;3.10;;;1.00;;
75993;SDS011;64680;53.800;9.988;2022-12-29T09:28:19;3.03;;;1.15;;
75993;SDS011;64680;53.800;9.988;2022-12-29T09:30:45;1.98;;;1.42;;
75993;SDS011;64680;53.800;9.988;2022-12-29T09:33:11;1.42;;;1.10;;
75993;SDS011;64680;53.800;9.988;2022-12-29T09:35:37;2.00;;;0.90;;
75993;SDS011;64680;53.800;9.988;2022-12-29T09:38:07;1.90;;;1.10;;
75993;SDS011;64680;53.800;9.988;2022-12-29T09:40:32;3.00;;;1.23;;
75993;SDS011;64680;53.800;9.988;2022-12-29T09:45:53;3.95;;;1.35;;
75993;SDS011;64680;53.800;9.988;2022-12-29T09:48:40;3.88;;;1.35;;
75993;SDS011;64680;53.800;9.988;2022-12-29T09:51:10;2.05;;;0.73;;
75993;SDS011;64680;53.800;9.988;2022-12-29T09:53:43;2.75;;;1.00;;
75993;SDS011;64680;53.800;9.988;2022-12-29T09:56:20;3.00;;;0.50;;
75993;SDS011;64680;53.800;9.988;2022-12-29T09:58:59;3.97;;;0.80;;
75993;SDS011;64680;53.800;9.988;2022-12-29T10:01:41;2.65;;;0.70;;
75993;SDS011;64680;53.800;9.988;2022-12-29T10:04:14;3.95;;;1.05;;
75993;SDS011;64680;53.800;9.988;2022-12-29T10:06:42;4.13;;;0.90;;
75993;SDS011;64680;53.800;9.988;2022-12-29T10:25:14;3.42;;;0.70;;
75993;SDS011;64680;53.800;9.988;2022-12-29T10:27:43;2.30;;;0.70;;
75993;SDS011;64680;53.800;9.988;2022-12-29T10:30:13;6.63;;;1.67;;
75993;SDS011;64680;53.800;9.988;2022-12-29T10:35:21;3.80;;;0.93;;
75993;SDS011;64680;53.800;9.988;2022-12-29T10:40:27;3.05;;;0.77;;
75993;SDS011;64680;53.800;9.988;2022-12-29T10:42:56;3.75;;;0.82;;
75993;SDS011;64680;53.800;9.988;2022-12-29T10:45:24;5.18;;;1.17;;
75993;SDS011;64680;53.800;9.988;2022-12-29T10:47:58;5.90;;;1.13;;
75993;SDS011;64680;53.800;9.988;2022-12-29T10:50:25;7.85;;;1.55;;
75993;SDS011;64680;53.800;9.988;2022-12-29T10:52:54;6.30;;;1.17;;
75993;SDS011;64680;53.800;9.988;2022-12-29T10:55:23;7.57;;;1.15;;
75993;SDS011;64680;53.800;9.988;2022-12-29T10:57:53;5.53;;;1.20;;
75993;SDS011;64680;53.800;9.988;2022-12-29T11:00:20;3.08;;;1.13;;
75993;SDS011;64680;53.800;9.988;2022-12-29T11:08:17;9.10;;;1.40;;
75993;SDS011;64680;53.800;9.988;2022-12-29T11:10:46;4.03;;;1.27;;
75993;SDS011;64680;53.800;9.988;2022-12-29T11:13:27;3.53;;;0.88;;
75993;SDS011;64680;53.800;9.988;2022-12-29T11:15:54;5.10;;;1.25;;
75993;SDS011;64680;53.800;9.988;2022-12-29T11:20:57;6.28;;;0.90;;
75993;SDS011;64680;53.800;9.988;2022-12-29T11:23:29;5.97;;;1.13;;
75993;SDS011;64680;53.800;9.988;2022-12-29T11:26:07;2.60;;;0.80;;
75993;SDS011;64680;53.800;9.988;2022-12-29T11:28:43;4.70;;;1.05;;
75993;SDS011;64680;53.800;9.988;2022-12-29T11:31:30;5.25;;;0.90;;
75993;SDS011;64680;53.800;9.988;2022-12-29T11:34:06;3.47;;;0.90;;
75993;SDS011;64680;53.800;9.988;2022-12-29T11:36:32;3.67;;;0.73;;
75993;SDS011;64680;53.800;9.988;2022-12-29T11:38:59;5.50;;;0.68;;
75993;SDS011;64680;53.800;9.988;2022-12-29T11:41:26;4.22;;;1.23;;
75993;SDS011;64680;53.800;9.988;2022-12-29T11:43:58;6.32;;;1.10;;
75993;SDS011;64680;53.800;9.988;2022-12-29T11:46:32;6.53;;;1.50;;
75993;SDS011;64680;53.800;9.988;2022-12-29T11:48:59;4.45;;;1.02;;
75993;SDS011;64680;53.800;9.988;2022-12-29T11:51:30;3.88;;;0.70;;
75993;SDS011;64680;53.800;9.988;2022-12-29T11:54:02;2.60;;;0.73;;
75993;SDS011;64680;53.800;9.988;2022-12-29T11:56:39;5.78;;;0.93;;
75993;SDS011;64680;53.800;9.988;2022-12-29T12:01:51;4.05;;;0.73;;
75993;SDS011;64680;53.800;9.988;2022-12-29T12:04:19;3.83;;;0.80;;
75993;SDS011;64680;53.800;9.988;2022-12-29T12:06:52;3.28;;;0.43;;
75993;SDS011;64680;53.800;9.988;2022-12-29T12:12:43;3.13;;;1.10;;
75993;SDS011;64680;53.800;9.988;2022-12-29T12:15:24;2.80;;;0.45;;
75993;SDS011;64680;53.800;9.988;2022-12-29T12:20:54;3.10;;;0.47;;
75993;SDS011;64680;53.800;9.988;2022-12-29T12:26:37;3.17;;;0.45;;
75993;SDS011;64680;53.800;9.988;2022-12-29T12:29:10;4.00;;;1.08;;
75993;SDS011;64680;53.800;9.988;2022-12-29T12:34:37;2.83;;;0.52;;
75993;SDS011;64680;53.800;9.988;2022-12-29T12:37:49;4.78;;;0.65;;
75993;SDS011;64680;53.800;9.988;2022-12-29T12:48:27;3.15;;;0.60;;
75993;SDS011;64680;53.800;9.988;2022-12-29T12:51:16;7.53;;;0.90;;
75993;SDS011;64680;53.800;9.988;2022-12-29T12:54:10;5.63;;;0.95;;
75993;SDS011;64680;53.800;9.988;2022-12-29T12:59:42;5.05;;;1.13;;
75993;SDS011;64680;53.800;9.988;2022-12-29T13:22:48;3.63;;;1.02;;
75993;SDS011;64680;53.800;9.988;2022-12-29T13:25:28;4.35;;;0.95;;
75993;SDS011;64680;53.800;9.988;2022-12-29T13:30:32;6.32;;;1.63;;
75993;SDS011;64680;53.800;9.988;2022-12-29T13:33:22;4.50;;;1.02;;
75993;SDS011;64680;53.800;9.988;2022-12-29T13:36:19;3.03;;;1.13;;
75993;SDS011;64680;53.800;9.988;2022-12-29T13:39:19;5.28;;;0.85;;
75993;SDS011;64680;53.800;9.988;2022-12-29T13:41:54;5.60;;;1.35;;
75993;SDS011;64680;53.800;9.988;2022-12-29T13:44:31;2.85;;;0.82;;
75993;SDS011;64680;53.800;9.988;2022-12-29T13:47:04;3.42;;;0.65;;
75993;SDS011;64680;53.800;9.988;2022-12-29T13:49:46;6.93;;;1.92;;
75993;SDS011;64680;53.800;9.988;2022-12-29T13:52:56;3.70;;;0.88;;
75993;SDS011;64680;53.800;9.988;2022-12-29T13:57:53;2.65;;;0.65;;
75993;SDS011;64680;53.800;9.988;2022-12-29T14:00:52;2.95;;;0.80;;
75993;SDS011;64680;53.800;9.988;2022-12-29T14:03:47;3.97;;;1.10;;
75993;SDS011;64680;53.800;9.988;2022-12-29T14:06:33;2.75;;;0.88;;
75993;SDS011;64680;53.800;9.988;2022-12-29T14:09:05;5.00;;;1.02;;
75993;SDS011;64680;53.800;9.988;2022-12-29T14:11:51;4.60;;;0.60;;
75993;SDS011;64680;53.800;9.988;2022-12-29T14:16:46;4.75;;;1.15;;
75993;SDS011;64680;53.800;9.988;2022-12-29T14:19:13;2.03;;;0.70;;
75993;SDS011;64680;53.800;9.988;2022-12-29T14:22:03;4.60;;;1.23;;
75993;SDS011;64680;53.800;9.988;2022-12-29T14:34:57;3.72;;;0.93;;
75993;SDS011;64680;53.800;9.988;2022-12-29T14:37:33;4.30;;;1.48;;
75993;SDS011;64680;53.800;9.988;2022-12-29T14:42:48;6.20;;;1.00;;
75993;SDS011;64680;53.800;9.988;2022-12-29T14:47:42;3.13;;;0.80;;
75993;SDS011;64680;53.800;9.988;2022-12-29T14:52:46;3.47;;;0.80;;
75993;SDS011;64680;53.800;9.988;2022-12-29T14:55:36;4.32;;;0.70;;
75993;SDS011;64680;53.800;9.988;2022-12-29T14:58:15;3.10;;;0.95;;
75993;SDS011;64680;53.800;9.988;2022-12-29T15:00:45;4.43;;;1.05;;
75993;SDS011;64680;53.800;9.988;2022-12-29T15:06:05;6.55;;;1.70;;
75993;SDS011;64680;53.800;9.988;2022-12-29T15:09:00;5.43;;;2.00;;
75993;SDS011;64680;53.800;9.988;2022-12-29T15:14:00;3.00;;;1.38;;
75993;SDS011;64680;53.800;9.988;2022-12-29T15:16:30;4.55;;;1.00;;
75993;SDS011;64680;53.800;9.988;2022-12-29T15:18:57;8.38;;;1.00;;
75993;SDS011;64680;53.800;9.988;2022-12-29T15:21:33;7.15;;;0.70;;
75993;SDS011;64680;53.800;9.988;2022-12-29T15:24:00;8.00;;;1.15;;
75993;SDS011;64680;53.800;9.988;2022-12-29T15:26:42;4.40;;;0.88;;
75993;SDS011;64680;53.800;9.988;2022-12-29T15:32:10;5.07;;;1.08;;
75993;SDS011;64680;53.800;9.988;2022-12-29T15:34:41;7.72;;;0.77;;
75993;SDS011;64680;53.800;9.988;2022-12-29T15:37:07;5.70;;;1.05;;
75993;SDS011;64680;53.800;9.988;2022-12-29T15:39:33;4.00;;;0.73;;
75993;SDS011;64680;53.800;9.988;2022-12-29T15:42:02;4.03;;;1.17;;
75993;SDS011;64680;53.800;9.988;2022-12-29T15:44:38;4.90;;;0.98;;
75993;SDS011;64680;53.800;9.988;2022-12-29T15:47:08;4.65;;;0.95;;
75993;SDS011;64680;53.800;9.988;2022-12-29T15:49:41;4.85;;;0.95;;
75993;SDS011;64680;53.800;9.988;2022-12-29T15:52:08;9.13;;;1.10;;
75993;SDS011;64680;53.800;9.988;2022-12-29T15:54:34;9.85;;;1.27;;
75993;SDS011;64680;53.800;9.988;2022-12-29T15:57:01;7.72;;;1.38;;
75993;SDS011;64680;53.800;9.988;2022-12-29T16:01:57;6.90;;;1.15;;
75993;SDS011;64680;53.800;9.988;2022-12-29T16:04:25;4.70;;;1.58;;
75993;SDS011;64680;53.800;9.988;2022-12-29T16:06:58;8.35;;;1.25;;
75993;SDS011;64680;53.800;9.988;2022-12-29T16:09:44;4.07;;;1.20;;
75993;SDS011;64680;53.800;9.988;2022-12-29T16:12:15;9.70;;;2.17;;
75993;SDS011;64680;53.800;9.988;2022-12-29T16:14:47;12.43;;;1.45;;
75993;SDS011;64680;53.800;9.988;2022-12-29T16:17:17;11.98;;;1.90;;
75993;SDS011;64680;53.800;9.988;2022-12-29T16:19:50;3.97;;;1.05;;
75993;SDS011;64680;53.800;9.988;2022-12-29T16:24:58;5.07;;;1.10;;
75993;SDS011;64680;53.800;9.988;2022-12-29T16:27:51;11.05;;;1.30;;
75993;SDS011;64680;53.800;9.988;2022-12-29T16:30:19;6.95;;;1.60;;
75993;SDS011;64680;53.800;9.988;2022-12-29T16:32:47;7.03;;;0.98;;
75993;SDS011;64680;53.800;9.988;2022-12-29T16:40:59;8.80;;;1.13;;
75993;SDS011;64680;53.800;9.988;2022-12-29T16:43:30;7.85;;;1.80;;
75993;SDS011;64680;53.800;9.988;2022-12-29T16:48:25;5.43;;;1.23;;
75993;SDS011;64680;53.800;9.988;2022-12-29T16:50:57;7.78;;;1.70;;
75993;SDS011;64680;53.800;9.988;2022-12-29T16:53:41;11.82;;;2.50;;
75993;SDS011;64680;53.800;9.988;2022-12-29T16:56:16;5.57;;;2.35;;
75993;SDS011;64680;53.800;9.988;2022-12-29T16:58:48;8.65;;;2.05;;
75993;SDS011;64680;53.800;9.988;2022-12-29T17:01:19;5.97;;;2.15;;
75993;SDS011;64680;53.800;9.988;2022-12-29T17:03:56;7.78;;;2.70;;
75993;SDS011;64680;53.800;9.988;2022-12-29T17:06:25;6.95;;;2.38;;
75993;SDS011;64680;53.800;9.988;2022-12-29T17:08:51;9.02;;;2.70;;
75993;SDS011;64680;53.800;9.988;2022-12-29T17:16:44;9.32;;;1.70;;
75993;SDS011;64680;53.800;9.988;2022-12-29T17:19:17;5.95;;;1.85;;
75993;SDS011;64680;53.800;9.988;2022-12-29T17:21:44;9.55;;;2.20;;
75993;SDS011;64680;53.800;9.988;2022-12-29T17:24:16;12.98;;;2.88;;
75993;SDS011;64680;53.800;9.988;2022-12-29T17:26:45;9.35;;;3.00;;
75993;SDS011;64680;53.800;9.988;2022-12-29T17:29:18;7.38;;;2.72;;
75993;SDS011;64680;53.800;9.988;2022-12-29T17:31:47;5.80;;;2.58;;
75993;SDS011;64680;53.800;9.988;2022-12-29T17:34:13;10.00;;;3.80;;
75993;SDS011;64680;53.800;9.988;2022-12-29T17:36:39;8.45;;;2.67;;
75993;SDS011;64680;53.800;9.988;2022-12-29T17:39:05;10.57;;;2.17;;
75993;SDS011;64680;53.800;9.988;2022-12-29T17:41:31;9.73;;;2.08;;
75993;SDS011;64680;53.800;9.988;2022-12-29T17:44:00;6.95;;;2.30;;
75993;SDS011;64680;53.800;9.988;2022-12-29T17:46:26;5.95;;;1.58;;
75993;SDS011;64680;53.800;9.988;2022-12-29T17:48:52;5.32;;;2.00;;
75993;SDS011;64680;53.800;9.988;2022-12-29T17:51:18;7.30;;;2.75;;
75993;SDS011;64680;53.800;9.988;2022-12-29T17:53:45;5.82;;;2.13;;